SCGM weather

Los Gomeros Airport
Rengo, O'Higgins Region, Chile

Public forecast

Using degrees Celsius for public forecast. Weather courtesy of forecast.io.

METAR (pilot weather report)

Closest report is De La Independencia Airport, 12.4 nm (23.0 km) NNE. Retrieved 2019/05/21 14:00 UTC (1 minute ago):

SCRG 211400Z 22004KT 7000 NSC 08/04 Q1022

TAF (pilot weather forecast)

Closest forecast is Comodoro Arturo Merino Benítez International Airport, 58.3 nm (108.0 km) N. Retrieved 2019/05/21 12:00 UTC (2 hours ago):

TAF SCEL 211045Z 2112/2212 16004KT CAVOK TX15/2118Z TN01/2211Z TEMPO 2112/2115 VRB02KT 6000 NSC BECMG 2115/2117 18010KT BECMG 2120/2122 21012KT SCT180 BECMG 2201/2203 16004KT CAVOK BECMG 2204/2206 8000 NSC TEMPO 2206/2212 5000 BR NSC